Terminal Aerodrome Forecast
Issued by NWS Atlanta, GA

Home | Current Version | Previous Version | Text Only | Print | Product List | Glossary On
Versions: 1 2 3 4 5 6 7 8 9 10 11 12 13 14 15 16 17
880
FTUS42 KFFC 290107 CCA
TAFMCN
TAF COR
KMCN 290107Z 2901/2924 32004KT P6SM SCT050 BKN120
     FM290300 00000KT P6SM SCT040
     FM290900 00000KT 3SM BR BKN035
     FM291500 VRB03KT P6SM BKN050=

USA.gov is the U.S. government's official web portal to all federal, state and local government web resources and services.